YBIA weather

Bingara Airport
New South Wales, Australia

Public forecast

Using degrees Celsius for public forecast. Weather courtesy of forecast.io.

Closest aviation weather report (METAR) to Bingara Airport

Closest report is Moree Airport, 40.2 nm (74.4 km) WNW. Retrieved 2019/12/12 20:00 UTC (1 hour ago):

YMOR 122000Z AUTO 16007KT 9999 // NCD 24/09 Q1010

Closest aviation forecast (TAF) to Bingara Airport

Forecast is more than 12 hours old.

Closest forecast is Tamworth Airport, 78.8 nm (145.9 km) SSE. Retrieved 2019/12/12 06:00 UTC (15 hours ago):

TAF YSTW 120509Z 1206/1300 21013KT 8000 -FU NSC FM121000 12013KT 7000 -FU SCT020 FM121400 16008KT 7000 -FU SCT020 FM121800 09007KT 7000 -SHRA -FU SCT020 BKN030 INTER 1218/1300 5000 SHRA BKN015 PROB30 1209/1300 4000 FU